Latest Coastal Weather Observations for St Helens

IDT60701

Issued at 7:25 pm EST Saturday 23 August 2014 (issued every 10 minutes, with the page automatically refreshed every 10 minutes)

About coastal observations | Map of coastal stations | Coastal observations for TAS | Marine services | Other Formats
Station Details ID: 092120 Name: ST HELENS AERODROME Lat: -41.34 Lon: 148.28 Height: 48.0 m
Data from the previous 72 hours. | See also: Recent months at St Helens
Date/Time
EST
Temp

°C
Wind Pressure Rain
since 9am
mm
Weather Cloud Vis
km
Sea
Height
m
Swell
Dir
 
Speed
knots
Gust
knots
hPa Trend Height
m
Period
s
Dir
23/07:00pm 12.1 N 3 5 1029.9 - 0.8 - - - - - - -
23/06:30pm 12.2 NE 5 7 1029.9 - 0.8 - - - - - - -
23/06:00pm 12.6 NNE 6 9 1029.8 - 0.4 - - - - - - -
23/05:30pm 12.9 NNE 4 6 1029.5 - 0.2 - - - - - - -
23/05:00pm 13.6 NNE 6 11 1029.5 - 0.2 - - - - - - -
23/04:30pm 14.5 NNE 9 14 1029.3 - 0.2 - - - - - - -
23/04:00pm 15.1 NNE 9 14 1029.3 - 0.2 - - - - - - -
23/03:30pm 15.8 NNE 9 13 1029.4 - 0.2 - - - - - - -
23/03:00pm 16.3 NE 9 13 1029.6 - 0.2 - - - - - - -
23/02:30pm 16.4 NNE 10 13 1029.7 - 0.2 - - - - - - -
23/02:00pm 16.2 NNE 8 13 1030.0 - 0.2 - - - - - - -
23/01:30pm 16.2 NNE 11 16 1030.1 - 0.0 - - - - - - -
23/01:00pm 16.3 NNE 11 16 1030.2 - 0.0 - - - - - - -
23/12:30pm 16.1 NNE 11 17 1030.6 - 0.0 - - - - - - -
23/12:00pm 16.2 NNE 11 18 1030.9 - 0.0 - - - - - - -
23/11:30am 15.1 NNE 10 15 1031.4 - 0.0 - - - - - - -
23/11:00am 15.6 NNE 10 16 1031.7 - 0.0 - - - - - - -
23/10:30am 14.6 NNE 4 7 1032.0 - 0.0 - - - - - - -
23/10:00am 13.1 N 3 5 1032.1 - 0.0 - - - - - - -
23/09:30am 12.4 CALM 0 0 1032.1 - 0.0 - - - - - - -
23/09:00am 10.4 NNW 0 0 1032.2 - 3.0 DIST PRECIP Mostly cloudy 25 - - - -
23/08:30am 8.1 NNW 4 5 1032.4 - 2.6 - - - - - - -
23/08:00am 8.4 NW 3 5 1032.4 - 2.6 - - - - - - -
23/07:30am 7.3 NNW 4 5 1032.3 - 2.6 - - - - - - -
23/07:00am 6.9 N 5 7 1032.1 - 2.6 - - - - - - -
23/06:30am 7.0 NNW 4 6 1031.8 - 2.4 - - - - - - -
23/06:00am 7.2 NNW 2 8 1031.7 - 2.4 - - - - - - -
23/05:30am 7.3 NW 3 4 1031.4 - 2.4 - - - - - - -
23/05:00am 7.8 NW 4 5 1031.2 - 2.4 - - - - - - -
23/04:30am 8.1 N 5 5 1031.2 - 2.4 - - - - - - -
23/04:00am 8.0 NW 3 5 1031.2 - 2.4 - - - - - - -
23/03:30am 8.4 N 1 4 1031.2 - 2.4 - - - - - - -
23/03:00am 8.5 W 1 3 1031.4 - 2.4 - - - - - - -
23/02:30am 8.6 NW 4 5 1031.6 - 2.2 - - - - - - -
23/02:00am 8.2 NNW 4 5 1031.8 - 2.2 - - - - - - -
23/01:30am 8.5 N 3 5 1032.0 - 2.2 - - - - - - -
23/01:00am 9.0 N 3 4 1032.0 - 2.2 - - - - - - -
23/12:30am 9.2 WNW 3 4 1031.9 - 2.2 - - - - - - -
23/12:00am 8.8 N 3 8 1032.2 - 2.2 - - - - - - -
 
Date/Time
EST
Temp

°C
Wind Pressure Rain
since 9am
mm
Weather Cloud Vis
km
Sea
Height
m
Swell
Dir
 
Speed
knots
Gust
knots
hPa Trend Height
m
Period
s
Dir
22/11:30pm 8.8 NNW 1 6 1032.1 - 2.0 - - - - - - -
22/11:00pm 8.5 CALM 0 0 1032.2 - 1.8 - - - - - - -
22/10:30pm 8.5 CALM 0 0 1032.3 - 1.8 - - - - - - -
22/10:00pm 9.3 CALM 0 0 1032.7 - 1.8 - - - - - - -
22/09:30pm 9.8 NNW 1 4 1032.7 - 1.8 - - - - - - -
22/09:00pm 8.6 NNW 1 5 1032.9 - 1.8 - - - - - - -
22/08:30pm 9.8 NNW 2 3 1032.7 - 1.8 - - - - - - -
22/08:00pm 10.8 NW 1 3 1032.5 - 1.8 - - - - - - -
22/07:30pm 10.9 CALM 0 0 1032.3 - 1.8 - - - - - - -
22/07:00pm 11.3 CALM 0 0 1032.4 - 1.8 - - - - - - -
22/06:30pm 11.9 N 3 5 1032.4 - 1.6 - - - - - - -
22/06:00pm 11.8 NNE 2 4 1032.3 - 1.6 - - - - - - -
22/05:30pm 11.7 NE 7 9 1032.0 - 1.6 - - - - - - -
22/05:00pm 12.0 NE 7 9 1031.9 - 1.6 - - - - - - -
22/04:30pm 12.2 NE 4 7 1031.9 - 1.6 - - - - - - -
22/04:00pm 12.0 NNE 5 9 1031.9 - 1.6 - - - - - - -
22/03:30pm 12.3 CALM 0 4 1031.9 - 0.6 - - - - - - -
22/03:00pm 12.1 ENE 1 4 1032.2 - 0.6 - - - - - - -
22/02:30pm 12.4 NNE 3 6 1032.3 - 0.2 - - - - - - -
22/02:00pm 11.6 NNE 7 11 1032.5 - 0.2 - - - - - - -
22/01:30pm 13.7 NNE 7 11 1032.7 - 0.2 - - - - - - -
22/01:00pm 13.8 NNE 8 14 1032.9 - 0.2 - - - - - - -
22/12:30pm 14.3 NE 8 11 1033.1 - 0.2 - - - - - - -
22/12:00pm 14.0 NNE 6 9 1033.5 - 0.2 - - - - - - -
22/11:30am 14.0 N 7 10 1033.8 - 0.2 - - - - - - -
22/11:00am 15.7 NE 8 12 1034.1 - 0.2 - - - - - - -
22/10:30am 13.7 N 5 8 1034.3 - 0.0 - - - - - - -
22/10:00am 12.7 N 4 7 1034.5 - 0.0 - - - - - - -
22/09:30am 11.5 CALM 0 0 1034.6 - 0.0 - - - - - - -
22/09:00am 10.1 NNW 3 4 1034.8 - 1.2 Mist Mostly cloudy 10 - - - -
22/08:30am 9.6 WNW 2 5 1034.7 - 1.2 - - - - - - -
22/08:00am 9.2 WNW 2 5 1034.7 - 1.2 - - - - - - -
22/07:30am 8.9 WNW 3 5 1034.5 - 1.2 - - - - - - -
22/07:00am 8.8 NW 5 6 1034.2 - 1.2 - - - - - - -
22/06:30am 8.8 NNW 4 5 1033.9 - 1.2 - - - - - - -
22/06:00am 9.1 WNW 2 5 1033.7 - 1.2 - - - - - - -
22/05:30am 9.1 NW 3 5 1033.6 - 1.2 - - - - - - -
22/05:00am 8.9 NW 5 6 1033.5 - 1.2 - - - - - - -
22/04:30am 9.0 NW 4 6 1033.5 - 1.2 - - - - - - -
22/04:00am 9.1 NW 3 4 1033.4 - 1.2 - - - - - - -
22/03:30am 9.2 NW 3 5 1033.5 - 1.2 - - - - - - -
22/03:00am 9.3 N 1 4 1033.6 - 1.2 - - - - - - -
22/02:30am 9.7 NW 2 4 1033.7 - 1.2 - - - - - - -
22/02:00am 9.5 W 3 4 1034.0 - 1.2 - - - - - - -
22/01:30am 9.2 NW 2 4 1034.3 - 1.2 - - - - - - -
22/01:00am 9.4 CALM 0 0 1034.2 - 1.2 - - - - - - -
22/12:30am 9.4 NNW 2 5 1034.3 - 1.2 - - - - - - -
22/12:00am 9.5 NNW 2 4 1034.5 - 1.2 - - - - - - -
 
Date/Time
EST
Temp

°C
Wind Pressure Rain
since 9am
mm
Weather Cloud Vis
km
Sea
Height
m
Swell
Dir
 
Speed
knots
Gust
knots
hPa Trend Height
m
Period
s
Dir
21/11:30pm 9.3 NW 3 4 1034.4 - 1.2 - - - - - - -
21/11:00pm 9.2 N 3 6 1034.3 - 1.2 - - - - - - -
21/10:30pm 9.9 CALM 0 1 1034.3 - 1.2 - - - - - - -
21/10:00pm 9.6 WNW 2 4 1034.3 - 1.2 - - - - - - -
21/09:30pm 9.7 CALM 0 3 1034.1 - 1.2 - - - - - - -
21/09:00pm 9.3 CALM 0 0 1034.2 - 1.2 - - - - - - -
21/08:30pm 9.4 NNE 3 6 1034.0 - 0.8 - - - - - - -
21/08:00pm 10.3 ENE 1 6 1033.9 - 0.2 - - - - - - -
21/07:30pm 10.3 CALM 0 0 1033.6 - 0.0 - - - - - - -
21/07:00pm 10.0 CALM 0 0 1033.5 - 0.0 - - - - - - -
21/06:30pm 10.1 E 3 4 1033.3 - 0.0 - - - - - - -
21/06:00pm 9.8 ENE 4 5 1033.2 - 0.0 - - - - - - -
21/05:30pm 10.1 E 4 5 1032.8 - 0.0 - - - - - - -
21/05:00pm 11.5 E 5 7 1032.6 - 0.0 - - - - - - -
21/04:30pm 12.2 E 4 8 1032.5 - 0.0 - - - - - - -
21/04:00pm 12.7 E 5 7 1032.4 - 0.0 - - - - - - -
21/03:30pm 12.9 E 4 7 1032.3 - 0.0 - - - - - - -
21/03:00pm 12.2 ENE 7 9 1032.4 - 0.0 - - - - - - -
21/02:30pm 12.6 ESE 3 7 1032.3 - 0.0 - - - - - - -
21/02:00pm 12.3 ESE 4 7 1032.3 - 0.0 - - - - - - -
21/01:30pm 12.8 SE 5 11 1032.4 - 0.0 - - - - - - -
21/01:00pm 12.7 ESE 5 11 1032.6 - 0.0 - - - - - - -
21/12:30pm 14.0 ESE 5 12 1032.7 - 0.0 - - - - - - -
21/12:00pm 13.1 SSE 5 8 1033.1 - 0.0 - - - - - - -
21/11:30am 12.7 SE 6 9 1033.2 - 0.0 - - - - - - -
21/11:00am 13.1 SE 4 9 1033.3 - 0.0 - - - - - - -
21/10:30am 11.6 W 2 4 1033.4 - 0.0 - - - - - - -
21/10:00am 9.8 WNW 2 4 1033.3 - 0.0 - - - - - - -
21/09:30am 8.7 WNW 2 5 1033.4 - 0.0 - - - - - - -
21/09:00am 7.1 WNW 3 5 1033.5 - 0.0 Fine Partly cloudy 25 - - - -
21/08:30am 5.9 NW 6 7 1033.2 - 0.0 - - - - - - -
21/08:00am 5.6 NW 6 8 1033.0 - 0.0 - - - - - - -
21/07:30am 5.6 NW 5 7 1032.6 - 0.0 - - - - - - -
21/07:00am 5.1 NW 4 6 1032.3 - 0.0 - - - - - - -
21/06:30am 5.4 NW 5 6 1031.8 - 0.0 - - - - - - -
21/06:00am 5.8 NW 5 6 1031.7 - 0.0 - - - - - - -
21/05:30am 6.6 NW 5 7 1031.4 - 0.0 - - - - - - -
21/05:00am 7.0 WNW 4 6 1031.2 - 0.0 - - - - - - -
21/04:30am 7.3 NW 4 5 1030.9 - 0.0 - - - - - - -
21/04:00am 7.3 WNW 3 6 1030.7 - 0.0 - - - - - - -
21/03:30am 7.7 NW 3 4 1030.6 - 0.0 - - - - - - -
21/03:00am 7.7 NW 3 5 1030.5 - 0.0 - - - - - - -
21/02:30am 7.5 NW 1 4 1030.5 - 0.0 - - - - - - -
21/02:00am 7.7 NNW 4 5 1030.6 - 0.0 - - - - - - -
21/01:30am 7.7 N 4 5 1030.6 - 0.0 - - - - - - -
21/01:00am 7.6 NW 5 6 1030.5 - 0.0 - - - - - - -
21/12:30am 7.5 NNW 5 6 1030.6 - 0.0 - - - - - - -
21/12:00am 7.5 NW 3 4 1030.6 - 0.0 - - - - - - -
 
Date/Time
EST
Temp

°C
Wind Pressure Rain
since 9am
mm
Weather Cloud Vis
km
Sea
Height
m
Swell
Dir
 
Speed
knots
Gust
knots
hPa Trend Height
m
Period
s
Dir
20/11:30pm 7.5 NNW 4 5 1030.5 - 0.0 - - - - - - -
20/11:00pm 7.8 NNW 5 6 1030.4 - 0.0 - - - - - - -
20/10:30pm 7.6 NNW 3 4 1030.4 - 0.0 - - - - - - -
20/10:00pm 7.6 NW 4 5 1030.4 - 0.0 - - - - - - -
20/09:30pm 7.5 NW 4 5 1030.3 - 0.0 - - - - - - -
20/09:00pm 7.4 NNW 4 5 1030.1 - 0.0 - - - - - - -
20/08:30pm 7.3 NNW 4 5 1029.7 - 0.0 - - - - - - -
20/08:00pm 7.4 NNW 5 6 1029.3 - 0.0 - - - - - - -
20/07:30pm 7.5 CALM 0 0 1029.1 - 0.0 - - - - - - -

Other Formats:

Comma delimited format used in spreadsheet applications
http://www.bom.gov.au/fwo/IDT60701/IDT60701.95981.axf

JavaScript Object Notation format (JSON) in row-major order
http://www.bom.gov.au/fwo/IDT60701/IDT60701.95981.json